createdAt,value
2022-08-07T00:01:44.664Z,49.00
2022-08-07T00:04:09.246Z,48.60
2022-08-07T00:06:51.067Z,48.50
2022-08-07T00:09:22.357Z,48.40
2022-08-07T00:11:55.390Z,48.20
2022-08-07T00:14:30.932Z,48.10
2022-08-07T00:17:04.056Z,47.70
2022-08-07T00:20:01.174Z,47.60
2022-08-07T00:22:24.637Z,48.50
2022-08-07T00:25:16.571Z,48.10
2022-08-07T00:27:52.698Z,48.10
2022-08-07T00:30:27.340Z,47.80
2022-08-07T00:33:02.240Z,47.70
2022-08-07T00:35:30.679Z,47.50
2022-08-07T00:37:59.817Z,47.60
2022-08-07T00:40:39.228Z,47.80
2022-08-07T00:44:01.374Z,47.60
2022-08-07T00:46:02.331Z,47.60
2022-08-07T00:48:31.963Z,47.40
2022-08-07T00:51:02.745Z,47.80
2022-08-07T00:53:39.084Z,47.90
2022-08-07T00:56:18.545Z,47.90
2022-08-07T00:58:47.397Z,47.70
2022-08-07T01:01:19.609Z,47.50
2022-08-07T01:03:56.904Z,47.50
2022-08-07T01:06:30.440Z,47.80
2022-08-07T01:09:01.629Z,47.60
2022-08-07T01:12:09.880Z,47.50
2022-08-07T01:14:28.073Z,47.60
2022-08-07T01:16:58.376Z,47.50
2022-08-07T01:19:32.573Z,47.50
2022-08-07T01:22:03.144Z,48.00
2022-08-07T01:24:31.994Z,47.50
2022-08-07T01:27:01.249Z,46.90
2022-08-07T01:29:31.232Z,47.10
2022-08-07T01:31:59.503Z,47.40
2022-08-07T01:34:31.981Z,47.20
2022-08-07T01:37:00.577Z,47.30
2022-08-07T01:39:40.535Z,47.30
2022-08-07T01:42:39.377Z,47.90
2022-08-07T01:45:09.869Z,48.00
2022-08-07T01:48:19.169Z,48.20
2022-08-07T01:50:32.187Z,47.90
2022-08-07T01:53:08.539Z,48.00
2022-08-07T01:55:51.756Z,48.40
2022-08-07T01:58:29.025Z,48.80
2022-08-07T02:01:58.732Z,48.70
2022-08-07T02:04:24.192Z,49.10
2022-08-07T02:06:58.868Z,49.20
2022-08-07T02:09:33.792Z,49.00
2022-08-07T02:12:19.044Z,48.90
2022-08-07T02:14:56.098Z,49.20
2022-08-07T02:17:31.499Z,49.10
2022-08-07T02:20:06.815Z,49.20
2022-08-07T02:22:43.743Z,49.20
2022-08-07T02:25:17.702Z,49.20
2022-08-07T02:27:51.966Z,49.30
2022-08-07T02:30:20.848Z,49.80
2022-08-07T02:33:00.439Z,49.50
2022-08-07T02:36:29.499Z,49.50
2022-08-07T02:38:35.529Z,49.70
2022-08-07T02:41:04.607Z,49.60
2022-08-07T02:43:33.741Z,49.90
2022-08-07T02:46:04.475Z,49.70
2022-08-07T02:48:32.300Z,49.60
2022-08-07T02:51:29.247Z,49.70
2022-08-07T02:54:02.949Z,49.80
2022-08-07T02:56:33.313Z,50.00
2022-08-07T02:59:08.020Z,49.70
2022-08-07T03:01:41.464Z,49.90
2022-08-07T03:04:16.213Z,50.20
2022-08-07T03:06:48.119Z,49.80
2022-08-07T03:09:43.466Z,50.20
2022-08-07T03:12:19.181Z,50.30
2022-08-07T03:14:52.523Z,50.30
2022-08-07T03:17:22.021Z,50.30
2022-08-07T03:19:55.087Z,50.40
2022-08-07T03:22:29.693Z,50.50
2022-08-07T03:25:00.467Z,50.50
2022-08-07T03:27:30.547Z,50.50
2022-08-07T03:30:10.926Z,50.50
2022-08-07T03:32:49.091Z,50.50
2022-08-07T03:35:44.087Z,50.80
2022-08-07T03:38:21.205Z,51.40
2022-08-07T03:40:57.408Z,50.90
2022-08-07T03:43:32.295Z,51.00
2022-08-07T03:46:03.895Z,50.40
2022-08-07T03:48:45.409Z,50.80
2022-08-07T03:51:30.917Z,50.70
2022-08-07T03:54:36.187Z,50.70
2022-08-07T03:57:07.408Z,51.40
2022-08-07T03:59:35.276Z,50.80
2022-08-07T04:02:03.230Z,50.80
2022-08-07T04:04:32.804Z,50.60
2022-08-07T04:07:00.361Z,51.00
2022-08-07T04:09:45.412Z,51.20
2022-08-07T04:12:24.711Z,50.90
2022-08-07T04:14:57.225Z,51.10
2022-08-07T04:17:24.990Z,51.00
2022-08-07T04:20:13.787Z,51.10
2022-08-07T04:22:53.369Z,51.40
2022-08-07T04:25:23.945Z,51.40
2022-08-07T04:28:00.667Z,51.40
2022-08-07T04:30:39.527Z,51.50
2022-08-07T04:33:15.405Z,51.80
2022-08-07T04:35:50.476Z,52.10
2022-08-07T04:38:19.294Z,52.30
2022-08-07T04:40:52.646Z,52.10
2022-08-07T04:44:12.633Z,52.10
2022-08-07T04:47:23.541Z,52.30
2022-08-07T04:50:35.573Z,52.50
2022-08-07T04:54:01.878Z,51.90
2022-08-07T04:58:16.698Z,52.30
2022-08-07T05:00:10.858Z,52.00
2022-08-07T05:04:06.943Z,52.50
2022-08-07T05:07:26.279Z,51.70
2022-08-07T05:10:14.284Z,52.40
2022-08-07T05:12:57.257Z,52.20
2022-08-07T05:15:42.329Z,52.10
2022-08-07T05:18:34.208Z,52.70
2022-08-07T05:21:06.917Z,52.30
2022-08-07T05:23:58.213Z,52.80
2022-08-07T05:26:29.836Z,52.90
2022-08-07T05:29:03.033Z,52.90
2022-08-07T05:31:47.618Z,52.70
2022-08-07T05:34:21.202Z,52.90
2022-08-07T05:36:55.849Z,52.80
2022-08-07T05:40:13.499Z,52.60
2022-08-07T05:42:14.635Z,53.10
2022-08-07T05:45:14.681Z,52.60
2022-08-07T05:48:02.191Z,52.70
2022-08-07T05:50:34.206Z,52.80
2022-08-07T05:53:04.756Z,53.00
2022-08-07T05:56:03.566Z,53.50
2022-08-07T05:58:36.929Z,53.00
2022-08-07T06:01:12.002Z,53.20
2022-08-07T06:03:56.438Z,53.60
2022-08-07T06:06:29.573Z,53.20
2022-08-07T06:08:58.264Z,53.60
2022-08-07T06:11:26.749Z,53.50
2022-08-07T06:14:12.584Z,53.90
2022-08-07T06:16:50.725Z,53.70
2022-08-07T06:19:47.529Z,53.60
2022-08-07T06:22:20.533Z,53.50
2022-08-07T06:24:58.220Z,53.90
2022-08-07T06:27:44.257Z,53.90
2022-08-07T06:30:32.488Z,53.80
2022-08-07T06:33:09.975Z,53.70
2022-08-07T06:35:47.743Z,53.90
2022-08-07T06:38:32.642Z,53.80
2022-08-07T06:41:09.764Z,53.70
2022-08-07T06:43:46.234Z,53.80
2022-08-07T06:46:15.667Z,53.70
2022-08-07T06:48:59.164Z,54.00
2022-08-07T06:51:33.589Z,54.30
2022-08-07T06:55:29.758Z,54.20
2022-08-07T06:56:54.592Z,53.60
2022-08-07T07:00:13.717Z,53.60
2022-08-07T07:02:49.168Z,53.60
2022-08-07T07:05:12.691Z,53.80
2022-08-07T07:07:59.567Z,53.30
2022-08-07T07:10:35.426Z,53.20
2022-08-07T07:13:56.245Z,54.00
2022-08-07T07:16:23.781Z,52.80
2022-08-07T07:19:34.131Z,52.60
2022-08-07T07:22:05.220Z,52.90
2022-08-07T07:24:43.042Z,53.10
2022-08-07T07:27:20.551Z,53.40
2022-08-07T07:30:09.294Z,53.30
2022-08-07T07:32:42.674Z,53.40
2022-08-07T07:35:12.812Z,53.50
2022-08-07T07:37:49.528Z,53.70
2022-08-07T07:40:26.136Z,53.40
2022-08-07T07:42:57.097Z,53.70
2022-08-07T07:46:38.577Z,53.40
2022-08-07T07:48:35.345Z,53.60
2022-08-07T07:51:07.764Z,53.60
2022-08-07T07:53:51.759Z,53.50
2022-08-07T07:56:30.047Z,54.00
2022-08-07T07:59:02.805Z,53.60
2022-08-07T08:02:03.512Z,53.50
2022-08-07T08:04:25.737Z,53.70
2022-08-07T08:06:55.221Z,53.90
2022-08-07T08:09:29.219Z,54.00
2022-08-07T08:12:02.507Z,54.00
2022-08-07T08:14:36.559Z,54.30
2022-08-07T08:17:56.706Z,54.00
2022-08-07T08:20:19.228Z,54.10
2022-08-07T08:23:14.413Z,53.90
2022-08-07T08:26:07.025Z,54.00
2022-08-07T08:28:45.151Z,54.30
2022-08-07T08:31:59.024Z,53.80
2022-08-07T08:34:26.708Z,54.10
2022-08-07T08:36:58.606Z,54.10
2022-08-07T08:39:39.571Z,53.30
2022-08-07T08:42:40.941Z,52.90
2022-08-07T08:45:58.572Z,53.30
2022-08-07T08:49:57.224Z,53.50
2022-08-07T08:52:40.793Z,53.10
2022-08-07T08:56:10.094Z,53.40
2022-08-07T08:59:27.750Z,53.20
2022-08-07T09:02:58.589Z,53.90
2022-08-07T09:06:00.203Z,53.90
2022-08-07T09:09:29.895Z,54.30
2022-08-07T09:13:14.917Z,54.30
2022-08-07T09:16:57.190Z,55.50
2022-08-07T09:20:09.333Z,55.80
2022-08-07T09:24:34.138Z,55.20
2022-08-07T09:26:50.843Z,55.80
2022-08-07T09:30:04.373Z,55.40
2022-08-07T09:33:41.143Z,54.30
2022-08-07T09:37:14.775Z,54.80
2022-08-07T09:40:09.213Z,54.20
2022-08-07T09:44:19.222Z,54.70
2022-08-07T09:48:02.910Z,54.40
2022-08-07T09:52:16.639Z,55.00
2022-08-07T09:54:18.133Z,54.00
2022-08-07T09:57:21.880Z,53.90
2022-08-07T10:00:15.016Z,54.80
2022-08-07T10:04:14.819Z,54.60
2022-08-07T10:07:52.255Z,54.30
2022-08-07T10:11:17.232Z,54.90
2022-08-07T10:14:11.283Z,55.10
2022-08-07T10:18:02.698Z,55.00
2022-08-07T10:22:15.617Z,54.20
2022-08-07T10:25:24.990Z,54.60
2022-08-07T10:28:43.476Z,54.00
2022-08-07T10:32:53.108Z,54.10
2022-08-07T10:36:05.536Z,53.10
2022-08-07T10:39:05.521Z,53.50
2022-08-07T10:42:20.871Z,53.00
2022-08-07T10:45:57.353Z,52.50
2022-08-07T10:49:13.637Z,52.40
2022-08-07T10:52:13.972Z,53.50
2022-08-07T10:55:38.473Z,52.60
2022-08-07T10:59:37.433Z,51.70
2022-08-07T11:02:41.713Z,51.50
2022-08-07T11:05:50.931Z,52.20
2022-08-07T11:08:58.036Z,52.30
2022-08-07T11:11:39.775Z,51.70
2022-08-07T11:15:00.642Z,51.80
2022-08-07T11:17:54.040Z,51.40
2022-08-07T11:21:12.393Z,52.10
2022-08-07T11:24:08.482Z,51.20
2022-08-07T11:28:01.162Z,50.90
2022-08-07T11:30:38.979Z,50.50
2022-08-07T11:33:54.010Z,51.00
2022-08-07T11:37:57.824Z,51.30
2022-08-07T11:41:17.992Z,50.80
2022-08-07T11:44:52.365Z,49.80
2022-08-07T11:48:32.746Z,49.90
2022-08-07T11:51:47.292Z,49.00
2022-08-07T11:56:13.944Z,48.30
2022-08-07T11:59:04.771Z,48.70
2022-08-07T12:02:04.078Z,49.30
2022-08-07T12:05:41.330Z,48.60
2022-08-07T12:09:00.336Z,48.90
2022-08-07T12:12:19.438Z,47.00
2022-08-07T12:15:17.346Z,47.00
2022-08-07T12:18:46.108Z,47.30
2022-08-07T12:22:39.103Z,47.70
2022-08-07T12:26:05.612Z,46.60
2022-08-07T12:29:38.031Z,47.20
2022-08-07T12:32:44.956Z,46.60
2022-08-07T12:35:19.193Z,47.00
2022-08-07T12:38:09.699Z,47.20
2022-08-07T12:40:47.455Z,47.50
2022-08-07T12:44:02.761Z,47.60
2022-08-07T12:47:33.747Z,48.20
2022-08-07T12:50:33.971Z,47.90
2022-08-07T12:54:24.295Z,48.70
2022-08-07T12:56:51.466Z,47.30
2022-08-07T12:59:53.899Z,46.90
2022-08-07T13:03:08.052Z,46.50
2022-08-07T13:06:27.195Z,45.70
2022-08-07T13:10:29.219Z,45.60
2022-08-07T13:13:46.845Z,45.90
2022-08-07T13:17:01.024Z,45.80
2022-08-07T13:19:51.744Z,46.30
2022-08-07T13:22:52.582Z,46.30
2022-08-07T13:25:39.420Z,46.50
2022-08-07T13:28:30.552Z,47.00
2022-08-07T13:31:46.024Z,46.60
2022-08-07T13:35:08.447Z,46.50
2022-08-07T13:38:31.004Z,46.20
2022-08-07T13:41:51.017Z,46.00
2022-08-07T13:44:34.637Z,46.50
2022-08-07T13:47:09.797Z,46.20
2022-08-07T13:50:34.507Z,45.60
2022-08-07T13:52:47.077Z,46.40
2022-08-07T13:55:26.427Z,46.00
2022-08-07T13:58:31.446Z,46.20
2022-08-07T14:01:10.753Z,45.50
2022-08-07T14:04:05.587Z,45.30
2022-08-07T14:06:38.718Z,45.40
2022-08-07T14:09:17.012Z,45.20
2022-08-07T14:12:10.268Z,45.70
2022-08-07T14:14:51.347Z,45.10
2022-08-07T14:18:12.671Z,45.40
2022-08-07T14:20:41.190Z,44.90
2022-08-07T14:23:59.166Z,45.10
2022-08-07T14:26:39.185Z,44.70
2022-08-07T14:30:05.538Z,44.50
2022-08-07T14:32:07.964Z,43.20
2022-08-07T14:34:45.500Z,43.40
2022-08-07T14:37:18.499Z,43.60
2022-08-07T14:40:17.665Z,44.00
2022-08-07T14:43:01.383Z,44.10
2022-08-07T14:45:55.124Z,43.40
2022-08-07T14:48:33.172Z,43.50
2022-08-07T14:54:09.896Z,42.30
2022-08-07T14:56:51.905Z,41.40
2022-08-07T15:00:05.499Z,41.30
2022-08-07T15:02:34.042Z,40.50
2022-08-07T15:05:04.716Z,40.70
2022-08-07T15:07:51.858Z,40.30
2022-08-07T15:10:30.038Z,39.60
2022-08-07T15:13:11.751Z,39.90
2022-08-07T15:18:45.224Z,39.70
2022-08-07T15:25:13.967Z,40.00
2022-08-07T15:27:31.350Z,39.80
2022-08-07T15:30:16.293Z,40.10
2022-08-07T15:32:51.098Z,40.60
2022-08-07T15:36:00.301Z,40.50
2022-08-07T15:42:46.896Z,40.70
2022-08-07T15:44:23.835Z,40.60
2022-08-07T15:47:09.004Z,40.40
2022-08-07T15:52:39.758Z,40.30
2022-08-07T15:55:18.269Z,40.70
2022-08-07T15:58:00.131Z,40.50
2022-08-07T16:00:39.010Z,41.10
2022-08-07T16:03:46.551Z,41.20
2022-08-07T16:06:17.369Z,41.50
2022-08-07T16:08:47.592Z,41.70
2022-08-07T16:12:37.938Z,41.50
2022-08-07T16:15:58.202Z,41.90
2022-08-07T16:19:42.001Z,42.10
2022-08-07T16:23:54.136Z,42.30
2022-08-07T16:26:30.671Z,42.70
2022-08-07T16:30:30.080Z,42.50
2022-08-07T16:34:02.404Z,42.50
2022-08-07T16:37:02.444Z,42.40
2022-08-07T16:40:34.239Z,42.80
2022-08-07T16:44:04.102Z,42.60
2022-08-07T16:47:56.592Z,43.00
2022-08-07T16:52:01.260Z,43.10
2022-08-07T16:55:24.437Z,43.20
2022-08-07T16:58:54.277Z,43.60
2022-08-07T17:01:57.064Z,43.80
2022-08-07T17:04:59.302Z,44.10
2022-08-07T17:07:55.046Z,43.90
2022-08-07T17:10:54.204Z,43.60
2022-08-07T17:14:19.049Z,43.70
2022-08-07T17:16:59.982Z,43.10
2022-08-07T17:20:02.212Z,43.70
2022-08-07T17:22:57.486Z,43.40
2022-08-07T17:26:22.591Z,42.80
2022-08-07T17:30:20.331Z,42.60
2022-08-07T17:34:09.695Z,42.90
2022-08-07T17:36:57.683Z,44.20
2022-08-07T17:40:07.889Z,45.00
2022-08-07T17:43:18.363Z,45.30
2022-08-07T17:46:18.293Z,45.70
2022-08-07T17:49:10.137Z,46.00
2022-08-07T17:52:32.400Z,46.00
2022-08-07T17:55:55.592Z,46.00
2022-08-07T17:58:30.653Z,45.90
2022-08-07T18:01:20.797Z,45.90
2022-08-07T18:05:02.171Z,46.20
2022-08-07T18:09:01.307Z,46.50
2022-08-07T18:12:28.032Z,46.30
2022-08-07T18:15:32.724Z,46.70
2022-08-07T18:18:45.174Z,47.10
2022-08-07T18:21:57.748Z,46.90
2022-08-07T18:24:51.208Z,47.30
2022-08-07T18:28:34.581Z,47.10
2022-08-07T18:31:33.744Z,47.10
2022-08-07T18:34:39.360Z,47.50
2022-08-07T18:38:56.298Z,47.70
2022-08-07T18:42:28.743Z,47.70
2022-08-07T18:45:44.658Z,48.20
2022-08-07T18:50:31.093Z,48.00
2022-08-07T18:52:33.395Z,48.20
2022-08-07T18:55:56.204Z,48.10
2022-08-07T18:59:47.610Z,48.20
2022-08-07T19:03:17.304Z,48.40
2022-08-07T19:06:06.891Z,48.40
2022-08-07T19:09:54.755Z,48.60
2022-08-07T19:12:30.245Z,48.50
2022-08-07T19:16:04.216Z,48.80
2022-08-07T19:19:00.069Z,49.20
2022-08-07T19:22:31.137Z,49.30
2022-08-07T19:25:06.274Z,49.20
2022-08-07T19:28:30.872Z,49.50
2022-08-07T19:31:04.153Z,49.40
2022-08-07T19:33:33.484Z,49.80
2022-08-07T19:36:08.615Z,49.70
2022-08-07T19:38:52.660Z,49.50
2022-08-07T19:41:39.764Z,49.50
2022-08-07T19:44:21.861Z,49.80
2022-08-07T19:47:05.001Z,50.20
2022-08-07T19:49:57.490Z,49.90
2022-08-07T19:52:32.379Z,50.00
2022-08-07T19:55:02.858Z,50.30
2022-08-07T19:58:06.496Z,50.30
2022-08-07T20:00:55.581Z,50.60
2022-08-07T20:03:35.734Z,50.60
2022-08-07T20:06:06.428Z,50.40
2022-08-07T20:08:48.888Z,50.20
2022-08-07T20:11:23.268Z,50.50
2022-08-07T20:14:13.532Z,50.70
2022-08-07T20:16:54.478Z,51.00
2022-08-07T20:19:28.896Z,50.70
2022-08-07T20:22:29.171Z,50.80
2022-08-07T20:25:12.937Z,50.70
2022-08-07T20:27:58.008Z,50.90
2022-08-07T20:30:38.473Z,50.80
2022-08-07T20:33:24.224Z,51.00
2022-08-07T20:36:03.716Z,51.00
2022-08-07T20:38:32.264Z,51.10
2022-08-07T20:41:05.589Z,51.10
2022-08-07T20:43:36.090Z,51.10
2022-08-07T20:46:25.699Z,51.40
2022-08-07T20:49:59.098Z,51.40
2022-08-07T20:51:50.839Z,51.50
2022-08-07T20:54:29.625Z,51.60
2022-08-07T20:57:08.311Z,51.60
2022-08-07T21:00:08.178Z,51.60
2022-08-07T21:02:53.959Z,51.90
2022-08-07T21:05:52.741Z,52.10
2022-08-07T21:08:42.445Z,52.20
2022-08-07T21:11:18.184Z,52.50
2022-08-07T21:14:16.569Z,52.60
2022-08-07T21:18:02.710Z,52.80
2022-08-07T21:20:10.462Z,52.90
2022-08-07T21:22:57.352Z,52.80
2022-08-07T21:26:21.895Z,53.00
2022-08-07T21:29:30.783Z,53.20
2022-08-07T21:32:47.704Z,53.20
2022-08-07T21:36:05.630Z,53.30
2022-08-07T21:39:46.362Z,53.50
2022-08-07T21:42:59.653Z,53.40
2022-08-07T21:46:08.713Z,53.80
2022-08-07T21:49:01.023Z,53.80
2022-08-07T21:51:28.214Z,54.20
2022-08-07T21:54:37.606Z,54.10
2022-08-07T21:58:02.201Z,54.40
2022-08-07T22:00:32.519Z,54.40
2022-08-07T22:03:49.783Z,54.50
2022-08-07T22:06:29.126Z,54.90
2022-08-07T22:09:12.254Z,55.00
2022-08-07T22:12:05.361Z,55.00
2022-08-07T22:16:43.139Z,55.30
2022-08-07T22:19:01.229Z,55.30
2022-08-07T22:22:20.990Z,55.50
2022-08-07T22:25:40.026Z,55.50
2022-08-07T22:29:00.338Z,55.80
2022-08-07T22:32:20.411Z,56.10
2022-08-07T22:34:58.452Z,56.30
2022-08-07T22:38:53.953Z,56.40
2022-08-07T22:42:03.343Z,56.70
2022-08-07T22:44:41.480Z,57.00
2022-08-07T22:48:13.590Z,57.10
2022-08-07T22:52:03.776Z,57.10
2022-08-07T22:55:17.486Z,57.40
2022-08-07T22:59:02.359Z,57.60
2022-08-07T23:02:15.625Z,57.90
2022-08-07T23:06:09.166Z,57.80
2022-08-07T23:10:00.578Z,58.30
2022-08-07T23:13:49.079Z,58.60
2022-08-07T23:17:32.917Z,58.60
2022-08-07T23:21:16.320Z,59.10
2022-08-07T23:25:04.241Z,59.00
2022-08-07T23:28:21.918Z,59.10
2022-08-07T23:34:20.951Z,58.70
2022-08-07T23:35:16.728Z,59.20
2022-08-07T23:38:36.691Z,59.00
2022-08-07T23:42:05.571Z,59.40
2022-08-07T23:45:33.100Z,59.60
2022-08-07T23:48:40.703Z,59.70
2022-08-07T23:52:59.570Z,59.80
2022-08-07T23:54:52.118Z,60.10
2022-08-07T23:58:02.559Z,60.30
